createdAt,value
2019-02-02T00:02:41.089Z,10.43
2019-02-02T00:07:56.836Z,14.67
2019-02-02T00:13:12.117Z,16.87
2019-02-02T00:18:28.021Z,13.90
2019-02-02T00:23:43.854Z,12.60
2019-02-02T00:28:59.556Z,14.03
2019-02-02T00:34:15.102Z,12.87
2019-02-02T00:39:30.578Z,13.60
2019-02-02T00:44:46.477Z,15.33
2019-02-02T00:50:02.865Z,13.67
2019-02-02T00:55:18.120Z,14.40
2019-02-02T01:00:33.885Z,15.07
2019-02-02T01:05:49.550Z,17.10
2019-02-02T01:11:05.117Z,14.10
2019-02-02T01:16:20.865Z,12.37
2019-02-02T01:21:36.320Z,14.07
2019-02-02T01:26:51.808Z,12.03
2019-02-02T01:32:07.482Z,13.30
2019-02-02T01:37:23.454Z,16.37
2019-02-02T01:42:38.691Z,16.50
2019-02-02T01:47:54.642Z,17.60
2019-02-02T01:53:10.805Z,15.63
2019-02-02T01:58:26.784Z,16.00
2019-02-02T02:03:42.283Z,16.10
2019-02-02T02:08:57.485Z,16.50
2019-02-02T02:14:13.366Z,18.30
2019-02-02T02:19:29.420Z,16.63
2019-02-02T02:24:44.949Z,15.70
2019-02-02T02:30:00.279Z,15.63
2019-02-02T02:35:15.613Z,17.03
2019-02-02T02:40:30.871Z,18.07
2019-02-02T02:45:46.871Z,16.43
2019-02-02T02:51:02.157Z,24.67
2019-02-02T02:56:17.572Z,17.50
2019-02-02T03:01:33.511Z,21.17
2019-02-02T03:06:49.306Z,18.17
2019-02-02T03:12:04.570Z,18.07
2019-02-02T03:17:20.649Z,21.50
2019-02-02T03:22:35.905Z,21.73
2019-02-02T03:27:51.860Z,16.53
2019-02-02T03:33:07.335Z,19.80
2019-02-02T03:38:23.725Z,20.43
2019-02-02T03:43:39.253Z,19.87
2019-02-02T03:48:55.345Z,17.97
2019-02-02T03:54:11.329Z,21.63
2019-02-02T03:59:27.425Z,18.90
2019-02-02T04:04:43.067Z,21.37
2019-02-02T04:09:58.368Z,20.47
2019-02-02T04:15:14.038Z,18.90
2019-02-02T04:20:29.685Z,20.27
2019-02-02T04:25:45.357Z,21.80
2019-02-02T04:31:00.837Z,19.10
2019-02-02T04:36:16.524Z,20.80
2019-02-02T04:41:32.171Z,20.47
2019-02-02T04:46:47.407Z,18.90
2019-02-02T04:52:03.473Z,20.03
2019-02-02T04:57:19.770Z,21.63
2019-02-02T05:02:35.438Z,24.00
2019-02-02T05:07:51.089Z,20.70
2019-02-02T05:13:06.549Z,23.13
2019-02-02T05:18:22.407Z,22.20
2019-02-02T05:23:37.861Z,19.03
2019-02-02T05:28:53.734Z,22.40
2019-02-02T05:34:09.103Z,23.70
2019-02-02T05:39:24.354Z,21.67
2019-02-02T05:44:40.241Z,21.57
2019-02-02T05:49:56.073Z,24.40
2019-02-02T05:55:12.053Z,22.20
2019-02-02T06:00:32.200Z,22.63
2019-02-02T06:05:47.841Z,24.37
2019-02-02T06:11:04.018Z,20.23
2019-02-02T06:16:19.491Z,24.80
2019-02-02T06:21:36.433Z,23.20
2019-02-02T06:26:52.533Z,19.97
2019-02-02T06:32:11.964Z,24.03
2019-02-02T06:37:25.442Z,24.93
2019-02-02T06:42:41.098Z,22.40
2019-02-02T06:47:56.954Z,24.43
2019-02-02T06:53:13.315Z,21.80
2019-02-02T06:58:28.619Z,20.63
2019-02-02T07:03:43.958Z,24.40
2019-02-02T07:08:59.217Z,21.30
2019-02-02T07:14:16.114Z,23.03
2019-02-02T07:19:32.206Z,24.17
2019-02-02T07:24:50.028Z,24.57
2019-02-02T07:30:05.486Z,26.50
2019-02-02T07:35:20.989Z,24.83
2019-02-02T07:40:37.860Z,26.13
2019-02-02T07:45:54.815Z,26.67
2019-02-02T07:56:37.773Z,26.57
2019-02-02T08:01:53.232Z,26.30
2019-02-02T08:07:08.503Z,27.50
2019-02-02T08:12:24.376Z,29.53
2019-02-02T08:17:39.858Z,28.07
2019-02-02T08:22:56.583Z,29.70
2019-02-02T08:28:18.341Z,25.47
2019-02-02T08:33:33.820Z,28.50
2019-02-02T08:38:50.574Z,29.60
2019-02-02T08:44:06.179Z,28.80
2019-02-02T08:49:21.807Z,28.20
2019-02-02T08:54:37.574Z,27.33
2019-02-02T08:59:55.066Z,28.37
2019-02-02T09:05:10.714Z,28.63
2019-02-02T09:10:26.969Z,28.43
2019-02-02T09:15:43.080Z,32.43
2019-02-02T09:21:00.465Z,31.97
2019-02-02T09:26:16.377Z,29.40
2019-02-02T09:31:32.498Z,33.10
2019-02-02T09:36:48.050Z,33.80
2019-02-02T09:42:03.272Z,38.00
2019-02-02T09:47:20.214Z,32.77
2019-02-02T09:52:35.973Z,35.97
2019-02-02T09:57:55.136Z,34.73
2019-02-02T10:03:09.445Z,34.20
2019-02-02T10:08:28.198Z,30.57
2019-02-02T10:13:42.837Z,36.33
2019-02-02T10:18:58.737Z,32.40
2019-02-02T10:24:14.255Z,32.00
2019-02-02T10:29:29.714Z,29.33
2019-02-02T10:34:45.361Z,27.40
2019-02-02T10:40:01.245Z,31.10
2019-02-02T10:45:17.710Z,30.17
2019-02-02T10:50:32.994Z,34.40
2019-02-02T10:55:48.481Z,36.60
2019-02-02T11:01:03.808Z,32.30
2019-02-02T11:06:19.565Z,29.87
2019-02-02T11:11:34.884Z,33.27
2019-02-02T11:16:51.118Z,32.40
2019-02-02T11:22:06.427Z,31.60
2019-02-02T11:27:22.576Z,35.47
2019-02-02T11:32:38.703Z,32.23
2019-02-02T11:37:54.744Z,32.17
2019-02-02T11:43:09.945Z,32.57
2019-02-02T11:48:25.764Z,34.90
2019-02-02T11:53:41.934Z,35.87
2019-02-02T11:58:57.502Z,37.33
2019-02-02T12:04:13.153Z,34.80
2019-02-02T12:09:28.917Z,34.83
2019-02-02T12:14:44.342Z,35.60
2019-02-02T12:19:59.870Z,35.47
2019-02-02T12:25:16.189Z,37.30
2019-02-02T12:30:31.892Z,37.97
2019-02-02T12:35:48.218Z,40.93
2019-02-02T12:41:03.654Z,41.40
2019-02-02T12:46:19.521Z,41.70
2019-02-02T12:51:35.937Z,41.00
2019-02-02T12:56:51.577Z,43.83
2019-02-02T13:02:07.179Z,44.37
2019-02-02T13:07:23.025Z,44.40
2019-02-02T13:12:26.444Z,40.57
2019-02-02T13:17:29.882Z,43.50
2019-02-02T13:22:52.722Z,46.30
2019-02-02T13:28:15.893Z,41.67
2019-02-02T13:33:40.380Z,40.77
2019-02-02T13:39:24.122Z,47.77
2019-02-02T13:44:46.888Z,45.27
2019-02-02T13:50:02.410Z,45.57
2019-02-02T13:55:18.169Z,43.80
2019-02-02T14:00:33.537Z,43.80
2019-02-02T14:05:49.170Z,41.27
2019-02-02T14:11:05.517Z,45.83
2019-02-02T14:16:21.640Z,44.67
2019-02-02T14:21:37.151Z,44.50
2019-02-02T14:26:52.973Z,44.17
2019-02-02T14:32:09.145Z,41.10
2019-02-02T14:37:24.670Z,45.53
2019-02-02T14:42:41.084Z,48.20
2019-02-02T14:47:56.868Z,51.47
2019-02-02T14:53:13.225Z,51.47
2019-02-02T15:03:51.879Z,49.83
2019-02-02T15:09:28.152Z,53.07
2019-02-02T15:14:30.314Z,54.80
2019-02-02T15:19:45.757Z,53.37
2019-02-02T15:25:08.013Z,52.20
2019-02-02T15:30:36.360Z,52.20
2019-02-02T15:35:52.276Z,50.17
2019-02-02T15:46:36.250Z,48.57
2019-02-02T15:51:52.007Z,46.90
2019-02-02T15:57:07.869Z,50.97
2019-02-02T16:02:23.398Z,49.40
2019-02-02T16:07:38.881Z,46.83
2019-02-02T16:12:54.678Z,48.87
2019-02-02T16:18:10.360Z,49.10
2019-02-02T16:23:25.962Z,47.40
2019-02-02T16:28:41.989Z,46.03
2019-02-02T16:34:02.144Z,47.47
2019-02-02T16:39:15.028Z,48.57
2019-02-02T16:44:30.727Z,48.77
2019-02-02T16:49:46.785Z,52.80
2019-02-02T16:55:02.489Z,48.60
2019-02-02T17:00:18.038Z,46.97
2019-02-02T17:05:33.626Z,56.50
2019-02-02T17:17:18.140Z,50.00
2019-02-02T17:21:51.819Z,56.83
2019-02-02T17:27:12.909Z,51.47
2019-02-02T17:38:12.935Z,57.17
2019-02-02T17:54:29.459Z,54.27
2019-02-02T17:59:33.124Z,57.37
2019-02-02T18:04:55.887Z,53.83
2019-02-02T18:10:18.645Z,55.00
2019-02-02T18:15:41.419Z,66.00
2019-02-02T18:21:04.426Z,65.67
2019-02-02T18:26:27.440Z,58.67
2019-02-02T18:31:50.452Z,61.07
2019-02-02T18:36:53.879Z,59.63
2019-02-02T18:42:16.644Z,56.63
2019-02-02T18:47:39.653Z,57.90
2019-02-02T18:53:02.666Z,55.07
2019-02-02T18:58:25.497Z,53.53
2019-02-02T19:03:29.169Z,57.73
2019-02-02T19:08:52.169Z,59.80
2019-02-02T19:14:15.181Z,53.80
2019-02-02T19:19:37.945Z,61.97
2019-02-02T19:25:00.960Z,60.40
2019-02-02T19:30:44.456Z,58.13
2019-02-02T19:36:07.465Z,62.23
2019-02-02T19:41:30.481Z,61.07
2019-02-02T19:46:53.240Z,66.60
2019-02-02T19:52:08.893Z,64.83
2019-02-02T19:57:24.669Z,63.50
2019-02-02T20:02:40.273Z,68.83
2019-02-02T20:07:55.641Z,75.67
2019-02-02T20:13:11.075Z,67.33
2019-02-02T20:18:27.881Z,67.93
2019-02-02T20:23:43.233Z,69.60
2019-02-02T20:40:05.848Z,70.17
2019-02-02T20:45:22.027Z,69.23
2019-02-02T20:50:37.201Z,65.33
2019-02-02T20:55:52.766Z,65.17
2019-02-02T21:01:08.994Z,64.47
2019-02-02T21:06:24.249Z,60.07
2019-02-02T21:11:39.681Z,61.87
2019-02-02T21:16:43.120Z,65.03
2019-02-02T21:22:05.958Z,65.57
2019-02-02T21:27:28.965Z,56.60
2019-02-02T21:32:51.731Z,58.10
2019-02-02T21:38:16.212Z,59.80
2019-02-02T21:43:39.238Z,58.27
2019-02-02T21:48:55.402Z,58.20
2019-02-02T21:54:11.448Z,59.97
2019-02-02T21:59:29.425Z,57.90
2019-02-02T22:04:44.749Z,57.63
2019-02-02T22:10:02.739Z,57.97
2019-02-02T22:15:18.208Z,61.97
2019-02-02T22:20:34.242Z,59.20
2019-02-02T22:25:50.106Z,58.33
2019-02-02T22:31:05.675Z,61.90
2019-02-02T22:36:27.422Z,55.53
2019-02-02T22:41:38.633Z,61.93
2019-02-02T22:46:54.427Z,65.30
2019-02-02T22:52:09.757Z,60.70
2019-02-02T22:57:25.535Z,59.70
2019-02-02T23:02:41.381Z,61.00
2019-02-02T23:07:56.660Z,63.87
2019-02-02T23:13:12.745Z,67.67
2019-02-02T23:18:28.139Z,74.50
2019-02-02T23:23:43.920Z,67.00
2019-02-02T23:28:59.225Z,74.13
2019-02-02T23:34:14.985Z,69.83
2019-02-02T23:39:30.961Z,71.17
2019-02-02T23:44:46.394Z,66.83
2019-02-02T23:50:02.244Z,74.13
2019-02-02T23:55:17.753Z,77.67
